Time;durP1;ratioP1;P1;durP2;ratioP2;P2;SDS_P1;SDS_P2;PMS_P1;PMS_P2;Temp;Humidity;BMP_temperature;BMP_pressure;BME280_temperature;BME280_humidity;BME280_pressure;Samples;Min_cycle;Max_cycle;Signal;HPM_P1;HPM_P2
2021/01/24 00:00:45;;;;;;;18.75;13.52;;;;;;;;;;5070932;28;20203;-74
2021/01/24 00:03:11;;;;;;;17.42;13.80;;;;;;;;;;5079132;28;20235;-74
2021/01/24 00:05:37;;;;;;;16.95;13.23;;;;;;;;;;5068943;28;20944;-75
2021/01/24 00:08:03;;;;;;;19.73;13.65;;;;;;;;;;5079415;28;20915;-73
2021/01/24 00:10:29;;;;;;;21.60;14.02;;;;;;;;;;5077626;28;20233;-74
2021/01/24 00:12:55;;;;;;;18.80;14.32;;;;;;;;;;5081587;28;20204;-74
2021/01/24 00:15:21;;;;;;;21.98;15.90;;;;;;;;;;5072835;28;20710;-72
2021/01/24 00:17:47;;;;;;;19.30;14.48;;;;;;;;;;5080035;28;20178;-71
2021/01/24 00:20:13;;;;;;;19.33;13.75;;;;;;;;;;5081341;28;20219;-76
2021/01/24 00:22:39;;;;;;;19.25;14.23;;;;;;;;;;5073008;28;20196;-74
2021/01/24 00:25:06;;;;;;;18.33;14.90;;;;;;;;;;5079082;28;20621;-76
2021/01/24 00:27:32;;;;;;;17.95;14.05;;;;;;;;;;5070796;28;20176;-74
2021/01/24 00:29:58;;;;;;;19.02;14.32;;;;;;;;;;5080528;28;20513;-73
2021/01/24 00:32:24;;;;;;;18.95;14.07;;;;;;;;;;5083388;28;20214;-73
2021/01/24 00:34:50;;;;;;;19.30;15.23;;;;;;;;;;5092448;28;20206;-75
2021/01/24 00:37:16;;;;;;;19.23;14.18;;;;;;;;;;5082253;28;20184;-75
2021/01/24 00:39:42;;;;;;;17.40;14.57;;;;;;;;;;5083595;28;20177;-72
2021/01/24 00:42:08;;;;;;;19.70;15.57;;;;;;;;;;5072650;28;20242;-73
2021/01/24 00:44:34;;;;;;;19.50;15.35;;;;;;;;;;5085631;28;20256;-74
2021/01/24 00:47:00;;;;;;;21.52;14.68;;;;;;;;;;5092919;28;20286;-76
2021/01/24 00:49:26;;;;;;;18.67;14.50;;;;;;;;;;5092507;28;20518;-75
2021/01/24 00:51:52;;;;;;;20.35;15.05;;;;;;;;;;5092719;28;20283;-72
2021/01/24 00:54:19;;;;;;;20.92;16.02;;;;;;;;;;5087711;28;20235;-73
2021/01/24 00:56:45;;;;;;;16.90;13.57;;;;;;;;;;5072582;28;20599;-72
2021/01/24 00:59:11;;;;;;;16.15;13.82;;;;;;;;;;5079348;28;20233;-72
2021/01/24 01:01:37;;;;;;;19.90;15.60;;;;;;;;;;5072206;28;20203;-73
2021/01/24 01:04:03;;;;;;;19.50;15.23;;;;;;;;;;5080241;28;20187;-71
2021/01/24 01:06:29;;;;;;;18.75;15.57;;;;;;;;;;5092405;28;20203;-74
2021/01/24 01:08:55;;;;;;;19.77;15.60;;;;;;;;;;5098799;28;20179;-74
2021/01/24 01:11:22;;;;;;;19.25;15.18;;;;;;;;;;5081790;28;20229;-75
2021/01/24 01:13:48;;;;;;;23.98;16.38;;;;;;;;;;5078422;28;20321;-72
2021/01/24 01:16:14;;;;;;;22.70;17.33;;;;;;;;;;5076597;28;20168;-71
2021/01/24 01:18:40;;;;;;;20.35;14.57;;;;;;;;;;5077075;28;20179;-74
2021/01/24 01:21:06;;;;;;;19.55;15.55;;;;;;;;;;5085836;28;20178;-72
2021/01/24 01:23:32;;;;;;;16.63;14.70;;;;;;;;;;5078766;28;20200;-74
2021/01/24 01:25:58;;;;;;;20.13;15.32;;;;;;;;;;5071611;28;20889;-74
2021/01/24 01:28:24;;;;;;;22.13;16.52;;;;;;;;;;5087032;28;20180;-74
2021/01/24 01:30:50;;;;;;;19.70;15.32;;;;;;;;;;5085183;28;20264;-76
2021/01/24 01:33:16;;;;;;;22.70;15.77;;;;;;;;;;5085699;28;20213;-74
2021/01/24 01:35:43;;;;;;;19.30;15.35;;;;;;;;;;5094418;28;20183;-71
2021/01/24 01:38:09;;;;;;;21.25;16.10;;;;;;;;;;5094206;28;20227;-74
2021/01/24 01:40:35;;;;;;;21.27;17.20;;;;;;;;;;5095326;28;20186;-71
2021/01/24 01:43:01;;;;;;;20.63;15.80;;;;;;;;;;5086797;28;20200;-77
2021/01/24 01:45:27;;;;;;;21.08;16.02;;;;;;;;;;5077432;28;20191;-76
2021/01/24 01:47:53;;;;;;;24.35;16.50;;;;;;;;;;5095335;28;20250;-76
2021/01/24 01:50:20;;;;;;;18.95;15.10;;;;;;;;;;5095776;28;20211;-72
2021/01/24 01:52:46;;;;;;;21.98;16.90;;;;;;;;;;5094902;28;20195;-73
2021/01/24 01:55:13;;;;;;;20.45;15.48;;;;;;;;;;5078887;28;20242;-75
2021/01/24 01:57:39;;;;;;;21.25;15.85;;;;;;;;;;5079480;28;20176;-73
2021/01/24 02:00:06;;;;;;;20.58;16.52;;;;;;;;;;5095210;28;20203;-73
2021/01/24 02:02:39;;;;;;;19.25;14.25;;;;;;;;;;5086413;28;20200;-75
2021/01/24 02:05:09;;;;;;;21.33;15.75;;;;;;;;;;5091340;28;20244;-75
2021/01/24 02:07:43;;;;;;;22.85;16.80;;;;;;;;;;5095098;28;20649;-75
2021/01/24 02:10:09;;;;;;;17.95;14.70;;;;;;;;;;5104393;28;20174;-73
2021/01/24 02:12:41;;;;;;;21.42;15.38;;;;;;;;;;5095029;28;20668;-74
2021/01/24 02:15:15;;;;;;;23.88;17.00;;;;;;;;;;5092980;28;20183;-74
2021/01/24 02:17:44;;;;;;;22.10;15.65;;;;;;;;;;5094593;28;20703;-71
2021/01/24 02:20:15;;;;;;;21.23;15.40;;;;;;;;;;5094717;28;20266;-72
2021/01/24 02:22:44;;;;;;;21.15;15.90;;;;;;;;;;5094477;28;20195;-74
2021/01/24 02:25:25;;;;;;;22.13;15.95;;;;;;;;;;5086125;28;20222;-73
2021/01/24 02:27:51;;;;;;;20.63;15.70;;;;;;;;;;5076375;28;20195;-74
2021/01/24 02:30:17;;;;;;;22.75;16.73;;;;;;;;;;5083853;28;20653;-73
2021/01/24 02:32:45;;;;;;;21.58;15.98;;;;;;;;;;5091226;28;20195;-74
2021/01/24 02:35:11;;;;;;;23.15;17.60;;;;;;;;;;5093460;28;20187;-73
2021/01/24 02:37:37;;;;;;;24.70;16.85;;;;;;;;;;5094378;28;20180;-75
2021/01/24 02:40:04;;;;;;;21.38;16.38;;;;;;;;;;5094348;28;20228;-75
2021/01/24 02:42:31;;;;;;;25.67;17.38;;;;;;;;;;5076517;28;20192;-73
2021/01/24 02:44:58;;;;;;;22.77;16.38;;;;;;;;;;5084725;28;20191;-74
2021/01/24 02:47:25;;;;;;;23.20;17.45;;;;;;;;;;5094468;28;20564;-75
2021/01/24 02:49:51;;;;;;;24.67;17.52;;;;;;;;;;5094847;28;20632;-74
2021/01/24 02:52:17;;;;;;;22.60;17.67;;;;;;;;;;5089742;28;20192;-74
2021/01/24 02:54:45;;;;;;;23.40;17.08;;;;;;;;;;5086399;28;20680;-76
2021/01/24 02:57:11;;;;;;;26.05;18.05;;;;;;;;;;5074046;28;20499;-75
2021/01/24 02:59:37;;;;;;;22.77;17.73;;;;;;;;;;5089016;28;20176;-76
2021/01/24 03:02:04;;;;;;;24.88;18.45;;;;;;;;;;5093553;28;20199;-74
2021/01/24 03:04:30;;;;;;;23.83;18.05;;;;;;;;;;5093284;28;20176;-75
2021/01/24 03:06:56;;;;;;;28.15;18.13;;;;;;;;;;5093324;28;20191;-75
2021/01/24 03:09:22;;;;;;;23.75;18.48;;;;;;;;;;5081327;28;20173;-74
2021/01/24 03:11:49;;;;;;;26.45;18.20;;;;;;;;;;5078881;28;20225;-74
2021/01/24 03:14:17;;;;;;;23.67;17.33;;;;;;;;;;5080589;28;20203;-75
2021/01/24 03:16:44;;;;;;;25.58;18.63;;;;;;;;;;5089266;28;20180;-73
2021/01/24 03:19:11;;;;;;;26.80;18.20;;;;;;;;;;5089675;28;20574;-75
2021/01/24 03:21:38;;;;;;;23.60;18.10;;;;;;;;;;5093277;28;20202;-74
2021/01/24 03:24:07;;;;;;;23.00;17.23;;;;;;;;;;5093291;28;20175;-75
2021/01/24 03:26:33;;;;;;;24.63;17.70;;;;;;;;;;5092027;28;20630;-74
2021/01/24 03:29:00;;;;;;;24.17;17.85;;;;;;;;;;5091293;28;20309;-75
2021/01/24 03:31:26;;;;;;;22.42;16.77;;;;;;;;;;5092666;28;20171;-74
2021/01/24 03:33:53;;;;;;;26.33;17.88;;;;;;;;;;5093223;28;20199;-74
2021/01/24 03:36:19;;;;;;;24.88;18.10;;;;;;;;;;5081884;28;20199;-73
2021/01/24 03:38:45;;;;;;;26.48;18.10;;;;;;;;;;5077051;28;20173;-76
2021/01/24 03:41:11;;;;;;;22.83;16.10;;;;;;;;;;5076542;28;20171;-75
2021/01/24 03:43:37;;;;;;;26.08;18.45;;;;;;;;;;5086628;28;20195;-74
2021/01/24 03:46:03;;;;;;;32.65;19.88;;;;;;;;;;5088241;28;20188;-73
2021/01/24 03:48:29;;;;;;;26.02;19.10;;;;;;;;;;5093295;28;20179;-71
2021/01/24 03:50:56;;;;;;;26.25;19.58;;;;;;;;;;5093155;28;20183;-72
2021/01/24 03:53:22;;;;;;;26.13;19.05;;;;;;;;;;5086290;28;20283;-73
2021/01/24 03:55:48;;;;;;;29.13;19.70;;;;;;;;;;5086876;28;20180;-72
2021/01/24 03:58:14;;;;;;;26.50;19.88;;;;;;;;;;5092996;28;20198;-72
2021/01/24 04:00:40;;;;;;;32.55;20.50;;;;;;;;;;5085753;28;20180;-76
2021/01/24 04:03:06;;;;;;;28.67;20.60;;;;;;;;;;5089042;28;20202;-75
2021/01/24 04:05:32;;;;;;;28.08;20.27;;;;;;;;;;5085361;28;20179;-73
2021/01/24 04:07:58;;;;;;;28.85;20.77;;;;;;;;;;5077066;28;20290;-72
2021/01/24 04:10:24;;;;;;;30.02;20.67;;;;;;;;;;5085903;28;20181;-73
2021/01/24 04:12:50;;;;;;;24.42;20.00;;;;;;;;;;5072751;28;20191;-73
2021/01/24 04:15:17;;;;;;;26.65;19.88;;;;;;;;;;5073048;28;20186;-72
2021/01/24 04:17:45;;;;;;;29.75;20.48;;;;;;;;;;5073187;28;20521;-74
2021/01/24 04:20:11;;;;;;;29.55;20.25;;;;;;;;;;5072826;28;20176;-75
2021/01/24 04:22:37;;;;;;;29.42;20.38;;;;;;;;;;5077617;28;20206;-73
2021/01/24 04:25:04;;;;;;;26.63;19.42;;;;;;;;;;5079753;28;20176;-74
2021/01/24 04:27:30;;;;;;;27.17;20.33;;;;;;;;;;5081383;28;20755;-76
2021/01/24 04:29:56;;;;;;;30.85;21.38;;;;;;;;;;5080064;28;20521;-74
2021/01/24 04:32:22;;;;;;;28.42;21.15;;;;;;;;;;5082319;28;20210;-75
2021/01/24 04:34:48;;;;;;;26.80;19.50;;;;;;;;;;5092401;28;20191;-76
2021/01/24 04:37:14;;;;;;;26.10;18.92;;;;;;;;;;5091933;28;20202;-71
2021/01/24 04:39:40;;;;;;;29.60;19.55;;;;;;;;;;5080620;28;20172;-74
2021/01/24 04:42:06;;;;;;;27.77;20.10;;;;;;;;;;5084580;28;20655;-74
2021/01/24 04:44:33;;;;;;;28.17;19.48;;;;;;;;;;5076677;28;20255;-74
2021/01/24 04:46:59;;;;;;;25.77;19.65;;;;;;;;;;5079262;28;20184;-75
2021/01/24 04:49:26;;;;;;;26.27;20.30;;;;;;;;;;5083907;28;20188;-73
2021/01/24 04:51:52;;;;;;;28.42;19.65;;;;;;;;;;5077852;28;20203;-76
2021/01/24 04:54:19;;;;;;;27.55;19.00;;;;;;;;;;5092038;28;20672;-73
2021/01/24 04:56:45;;;;;;;28.77;21.23;;;;;;;;;;5091503;28;20199;-76
2021/01/24 04:59:11;;;;;;;29.92;21.33;;;;;;;;;;5090513;28;20179;-73
2021/01/24 05:01:39;;;;;;;29.13;20.23;;;;;;;;;;5098069;28;20175;-74
2021/01/24 05:04:07;;;;;;;26.02;19.73;;;;;;;;;;5092646;28;20172;-70
2021/01/24 05:06:33;;;;;;;28.42;21.25;;;;;;;;;;5094583;28;20195;-73
2021/01/24 05:09:00;;;;;;;30.42;19.83;;;;;;;;;;5094299;28;20202;-73
2021/01/24 05:11:26;;;;;;;29.33;20.05;;;;;;;;;;5084665;28;20680;-71
2021/01/24 05:13:52;;;;;;;30.27;21.63;;;;;;;;;;5095643;28;20202;-75
2021/01/24 05:16:21;;;;;;;32.08;20.48;;;;;;;;;;5082391;28;20247;-76
2021/01/24 05:18:55;;;;;;;26.40;19.75;;;;;;;;;;5087901;28;20172;-72
2021/01/24 05:21:21;;;;;;;28.38;20.35;;;;;;;;;;5079030;28;20175;-75
2021/01/24 05:23:48;;;;;;;28.30;20.58;;;;;;;;;;5085983;28;20207;-72
2021/01/24 05:26:14;;;;;;;27.45;20.65;;;;;;;;;;5079093;28;20180;-72
2021/01/24 05:28:47;;;;;;;28.95;21.83;;;;;;;;;;5082311;28;20167;-71
2021/01/24 05:31:14;;;;;;;27.85;20.60;;;;;;;;;;5077751;28;20533;-72
2021/01/24 05:33:44;;;;;;;28.73;21.48;;;;;;;;;;5086199;28;20732;-75
2021/01/24 05:36:10;;;;;;;28.02;20.13;;;;;;;;;;5095315;28;20180;-72
2021/01/24 05:38:36;;;;;;;26.15;18.85;;;;;;;;;;5081946;28;20187;-76
2021/01/24 05:41:06;;;;;;;26.92;20.27;;;;;;;;;;5081896;28;20195;-77
2021/01/24 05:43:36;;;;;;;30.70;20.05;;;;;;;;;;5074920;28;20200;-74
2021/01/24 05:46:03;;;;;;;28.33;19.75;;;;;;;;;;5088282;28;20225;-74
2021/01/24 05:48:30;;;;;;;26.83;20.23;;;;;;;;;;5075231;28;20188;-76
2021/01/24 05:50:56;;;;;;;26.65;19.65;;;;;;;;;;5087960;28;20660;-73
2021/01/24 05:53:23;;;;;;;25.73;18.75;;;;;;;;;;5076495;28;20196;-73
2021/01/24 05:55:50;;;;;;;27.10;20.63;;;;;;;;;;5086607;28;20529;-76
2021/01/24 05:58:16;;;;;;;28.15;20.15;;;;;;;;;;5080076;28;20263;-72
2021/01/24 06:00:45;;;;;;;29.08;20.80;;;;;;;;;;5095301;28;20521;-72
2021/01/24 06:03:12;;;;;;;28.17;20.17;;;;;;;;;;5088925;28;20538;-72
2021/01/24 06:05:39;;;;;;;29.00;20.00;;;;;;;;;;5074614;28;20279;-75
2021/01/24 06:08:08;;;;;;;26.05;18.42;;;;;;;;;;5080282;28;20591;-75
2021/01/24 06:10:34;;;;;;;26.30;19.25;;;;;;;;;;5087120;28;20207;-75
2021/01/24 06:13:01;;;;;;;30.20;19.85;;;;;;;;;;5084697;28;20203;-72
2021/01/24 06:15:30;;;;;;;29.55;21.40;;;;;;;;;;5074469;28;20172;-73
2021/01/24 06:17:58;;;;;;;27.58;19.75;;;;;;;;;;5084664;28;20182;-73
2021/01/24 06:20:26;;;;;;;29.48;19.75;;;;;;;;;;5094942;28;20252;-73
2021/01/24 06:23:01;;;;;;;27.95;18.90;;;;;;;;;;5094150;28;20195;-72
2021/01/24 06:25:34;;;;;;;27.08;19.40;;;;;;;;;;5089917;28;20182;-72
2021/01/24 06:28:04;;;;;;;28.70;19.55;;;;;;;;;;5092853;28;20180;-76
2021/01/24 06:30:30;;;;;;;30.17;20.55;;;;;;;;;;5078341;28;20176;-74
2021/01/24 06:32:57;;;;;;;29.42;20.60;;;;;;;;;;5084228;28;20204;-72
2021/01/24 06:35:25;;;;;;;32.60;20.85;;;;;;;;;;5073822;28;20172;-73
2021/01/24 06:37:53;;;;;;;28.95;19.90;;;;;;;;;;5091842;28;20272;-74
2021/01/24 06:40:23;;;;;;;23.75;18.77;;;;;;;;;;5091251;28;20168;-73
2021/01/24 06:42:53;;;;;;;29.40;20.52;;;;;;;;;;5082221;28;20291;-72
2021/01/24 06:45:22;;;;;;;29.17;19.17;;;;;;;;;;5078378;28;20214;-73
2021/01/24 06:47:49;;;;;;;28.67;20.15;;;;;;;;;;5094307;28;20172;-73
2021/01/24 06:50:33;;;;;;;28.00;19.77;;;;;;;;;;5094180;28;20172;-76
2021/01/24 06:53:06;;;;;;;27.48;19.65;;;;;;;;;;5091374;28;20203;-73
2021/01/24 06:55:32;;;;;;;27.95;19.05;;;;;;;;;;5076029;28;20176;-72
2021/01/24 06:57:59;;;;;;;27.70;19.23;;;;;;;;;;5073872;28;20645;-74
2021/01/24 07:00:25;;;;;;;26.40;18.60;;;;;;;;;;5073735;28;20180;-73
2021/01/24 07:02:51;;;;;;;28.27;17.95;;;;;;;;;;5073771;28;20748;-73
2021/01/24 07:05:17;;;;;;;26.85;18.40;;;;;;;;;;5081609;28;20244;-74
2021/01/24 07:07:44;;;;;;;25.45;17.98;;;;;;;;;;5093690;28;20622;-75
2021/01/24 07:10:11;;;;;;;22.42;17.88;;;;;;;;;;5099433;28;20187;-75
2021/01/24 07:12:41;;;;;;;25.60;17.88;;;;;;;;;;5087153;28;20357;-74
2021/01/24 07:15:09;;;;;;;23.77;18.05;;;;;;;;;;5073230;28;20196;-76
2021/01/24 07:17:35;;;;;;;26.92;18.58;;;;;;;;;;5074163;28;20199;-74
2021/01/24 07:20:02;;;;;;;25.80;18.20;;;;;;;;;;5082291;28;20187;-75
2021/01/24 07:22:29;;;;;;;24.60;16.10;;;;;;;;;;5073271;28;20600;-72
2021/01/24 07:24:56;;;;;;;26.83;19.02;;;;;;;;;;5093397;28;20172;-74
2021/01/24 07:27:23;;;;;;;22.10;17.08;;;;;;;;;;5093886;28;20183;-75
2021/01/24 07:29:49;;;;;;;22.15;16.23;;;;;;;;;;5085262;28;20255;-76
2021/01/24 07:32:17;;;;;;;27.48;17.85;;;;;;;;;;5082157;28;20229;-76
2021/01/24 07:34:44;;;;;;;23.67;18.33;;;;;;;;;;5092862;28;20230;-73
2021/01/24 07:37:13;;;;;;;22.08;17.20;;;;;;;;;;5093447;28;20182;-77
2021/01/24 07:39:39;;;;;;;24.48;18.60;;;;;;;;;;5086903;28;20240;-74
2021/01/24 07:42:06;;;;;;;23.75;17.30;;;;;;;;;;5089611;28;20199;-72
2021/01/24 07:44:32;;;;;;;23.05;17.80;;;;;;;;;;5092679;28;20296;-74
2021/01/24 07:46:58;;;;;;;24.45;18.33;;;;;;;;;;5093640;28;20191;-75
2021/01/24 07:49:24;;;;;;;24.73;18.08;;;;;;;;;;5087744;28;20176;-72
2021/01/24 07:51:51;;;;;;;23.45;17.05;;;;;;;;;;5083984;28;20227;-75
2021/01/24 07:54:17;;;;;;;24.42;17.80;;;;;;;;;;5088069;28;20200;-76
2021/01/24 07:56:44;;;;;;;25.65;18.80;;;;;;;;;;5093645;28;20257;-74
2021/01/24 07:59:10;;;;;;;24.45;17.50;;;;;;;;;;5087012;28;20204;-74
2021/01/24 08:01:37;;;;;;;23.63;17.50;;;;;;;;;;5073159;28;20187;-73
2021/01/24 08:04:04;;;;;;;23.50;17.70;;;;;;;;;;5084495;28;20191;-73
2021/01/24 08:06:33;;;;;;;24.90;17.77;;;;;;;;;;5073226;28;20203;-75
2021/01/24 08:08:59;;;;;;;22.75;17.50;;;;;;;;;;5089796;28;20179;-73
2021/01/24 08:11:26;;;;;;;27.40;18.95;;;;;;;;;;5091597;28;20532;-72
2021/01/24 08:13:52;;;;;;;23.80;17.85;;;;;;;;;;5089459;28;20196;-73
2021/01/24 08:16:21;;;;;;;24.65;18.80;;;;;;;;;;5073635;28;20519;-74
2021/01/24 08:18:49;;;;;;;26.15;18.98;;;;;;;;;;5073201;28;20180;-74
2021/01/24 08:21:16;;;;;;;24.42;18.27;;;;;;;;;;5084254;28;20185;-72
2021/01/24 08:23:42;;;;;;;23.10;17.63;;;;;;;;;;5072539;28;20538;-75
2021/01/24 08:26:08;;;;;;;27.00;18.77;;;;;;;;;;5089747;28;20179;-73
2021/01/24 08:28:34;;;;;;;22.92;16.98;;;;;;;;;;5093452;28;20177;-75
2021/01/24 08:31:01;;;;;;;25.02;17.20;;;;;;;;;;5079582;28;20184;-74
2021/01/24 08:33:27;;;;;;;24.10;17.73;;;;;;;;;;5082262;28;20191;-77
2021/01/24 08:35:53;;;;;;;23.67;17.33;;;;;;;;;;5094418;28;20209;-72
2021/01/24 08:38:21;;;;;;;24.63;17.17;;;;;;;;;;5076408;28;20176;-73
2021/01/24 08:40:48;;;;;;;26.10;19.60;;;;;;;;;;5085956;28;20505;-73
2021/01/24 08:43:20;;;;;;;28.88;19.55;;;;;;;;;;5088163;28;20203;-76
2021/01/24 08:45:46;;;;;;;23.92;18.23;;;;;;;;;;5090981;28;20179;-75
2021/01/24 08:48:15;;;;;;;26.83;19.05;;;;;;;;;;5096596;28;20183;-73
2021/01/24 08:50:42;;;;;;;27.60;17.95;;;;;;;;;;5096219;28;20171;-78
2021/01/24 08:53:08;;;;;;;27.75;18.88;;;;;;;;;;5087577;28;20234;-74
2021/01/24 08:55:47;;;;;;;24.95;17.95;;;;;;;;;;5086193;28;20171;-75
2021/01/24 08:58:26;;;;;;;25.10;18.83;;;;;;;;;;5076236;28;20195;-73
2021/01/24 09:01:09;;;;;;;23.63;17.65;;;;;;;;;;5076062;28;20176;-73
2021/01/24 09:03:35;;;;;;;24.70;18.27;;;;;;;;;;5076132;28;20207;-73
2021/01/24 09:06:17;;;;;;;25.08;18.05;;;;;;;;;;5087830;28;20577;-74
2021/01/24 09:08:52;;;;;;;25.10;17.50;;;;;;;;;;5086025;28;20190;-73
2021/01/24 09:11:19;;;;;;;21.77;16.48;;;;;;;;;;5093276;28;20186;-73
2021/01/24 09:13:45;;;;;;;29.75;19.73;;;;;;;;;;5095350;28;20196;-74
2021/01/24 09:16:11;;;;;;;24.80;17.40;;;;;;;;;;5075720;28;20180;-71
2021/01/24 09:18:37;;;;;;;25.00;19.15;;;;;;;;;;5086878;28;20175;-74
2021/01/24 09:21:06;;;;;;;25.45;18.58;;;;;;;;;;5075845;28;20667;-73
2021/01/24 09:23:32;;;;;;;24.83;18.70;;;;;;;;;;5084438;28;20290;-75
2021/01/24 09:25:59;;;;;;;27.67;20.63;;;;;;;;;;5084090;28;20241;-76
2021/01/24 09:28:25;;;;;;;24.58;19.20;;;;;;;;;;5088170;28;20184;-75
2021/01/24 09:30:53;;;;;;;24.58;18.05;;;;;;;;;;5096157;28;20632;-75
2021/01/24 09:33:19;;;;;;;24.25;18.67;;;;;;;;;;5080884;28;20246;-73
2021/01/24 09:35:45;;;;;;;24.08;18.73;;;;;;;;;;5081399;28;20191;-74
2021/01/24 09:38:11;;;;;;;26.23;18.98;;;;;;;;;;5076241;28;20173;-73
2021/01/24 09:40:37;;;;;;;25.35;19.45;;;;;;;;;;5094688;28;20189;-72
2021/01/24 09:43:03;;;;;;;26.30;18.40;;;;;;;;;;5085895;28;20202;-72
2021/01/24 09:45:30;;;;;;;24.45;18.10;;;;;;;;;;5086439;28;20168;-74
2021/01/24 09:47:56;;;;;;;29.15;19.27;;;;;;;;;;5095282;28;20192;-72
2021/01/24 09:50:23;;;;;;;29.65;18.95;;;;;;;;;;5094893;28;20183;-75
2021/01/24 09:52:50;;;;;;;27.08;19.60;;;;;;;;;;5080562;28;20591;-74
2021/01/24 09:55:16;;;;;;;28.65;19.65;;;;;;;;;;5077826;28;20187;-73
2021/01/24 09:57:42;;;;;;;25.52;19.67;;;;;;;;;;5095478;28;20179;-74
2021/01/24 10:00:08;;;;;;;27.27;19.33;;;;;;;;;;5095262;28;20172;-74
2021/01/24 10:02:34;;;;;;;29.50;20.65;;;;;;;;;;5095164;28;20191;-73
2021/01/24 10:05:00;;;;;;;28.73;20.80;;;;;;;;;;5088407;28;20507;-73
2021/01/24 10:07:27;;;;;;;26.63;19.95;;;;;;;;;;5081641;28;20220;-74
2021/01/24 10:09:53;;;;;;;25.42;19.38;;;;;;;;;;5095652;28;20182;-73
2021/01/24 10:12:19;;;;;;;27.45;19.75;;;;;;;;;;5086895;28;20199;-75
2021/01/24 10:14:45;;;;;;;26.88;20.00;;;;;;;;;;5070499;28;20530;-73
2021/01/24 10:17:11;;;;;;;26.05;19.02;;;;;;;;;;5089660;28;20176;-76
2021/01/24 10:19:38;;;;;;;27.27;20.52;;;;;;;;;;5086217;28;20305;-74
2021/01/24 10:22:04;;;;;;;27.63;20.50;;;;;;;;;;5083396;28;20199;-74
2021/01/24 10:24:30;;;;;;;28.25;19.40;;;;;;;;;;5090805;28;20180;-75
2021/01/24 10:26:56;;;;;;;25.90;20.27;;;;;;;;;;5090399;28;20175;-74
2021/01/24 10:29:25;;;;;;;26.17;19.33;;;;;;;;;;5082942;28;20747;-74
2021/01/24 10:31:51;;;;;;;27.85;20.02;;;;;;;;;;5070286;28;20207;-71
2021/01/24 10:34:17;;;;;;;27.60;20.10;;;;;;;;;;5070036;28;20215;-75
2021/01/24 10:36:43;;;;;;;26.20;19.25;;;;;;;;;;5082293;28;20509;-74
2021/01/24 10:39:09;;;;;;;27.67;19.65;;;;;;;;;;5070668;28;20190;-76
2021/01/24 10:41:35;;;;;;;25.70;18.35;;;;;;;;;;5076027;28;20228;-75
2021/01/24 10:44:01;;;;;;;26.83;20.83;;;;;;;;;;5069707;28;20184;-75
2021/01/24 10:46:27;;;;;;;23.58;19.05;;;;;;;;;;5085552;28;20179;-72
2021/01/24 10:48:53;;;;;;;27.60;19.70;;;;;;;;;;5081731;28;20184;-76
2021/01/24 10:51:19;;;;;;;22.02;17.90;;;;;;;;;;5079276;28;20209;-75
2021/01/24 10:53:45;;;;;;;20.77;18.20;;;;;;;;;;5076378;28;20199;-77
2021/01/24 10:56:11;;;;;;;25.45;18.45;;;;;;;;;;5089642;28;20214;-73
2021/01/24 10:58:38;;;;;;;23.20;17.63;;;;;;;;;;5090201;28;20659;-72
2021/01/24 11:01:04;;;;;;;22.48;17.33;;;;;;;;;;5087538;28;20190;-73
2021/01/24 11:03:30;;;;;;;22.95;16.38;;;;;;;;;;5081131;28;20203;-74
2021/01/24 11:05:56;;;;;;;20.63;16.65;;;;;;;;;;5089598;28;20218;-74
2021/01/24 11:08:24;;;;;;;22.65;17.45;;;;;;;;;;5091782;28;20215;-72
2021/01/24 11:10:51;;;;;;;21.73;16.90;;;;;;;;;;5077540;28;20668;-76
2021/01/24 11:13:18;;;;;;;20.60;16.92;;;;;;;;;;5075096;28;20795;-73
2021/01/24 11:15:45;;;;;;;21.27;17.58;;;;;;;;;;5089778;28;20665;-74
2021/01/24 11:18:11;;;;;;;20.10;16.45;;;;;;;;;;5091959;28;20183;-72
2021/01/24 11:20:37;;;;;;;21.60;16.67;;;;;;;;;;5091855;28;20198;-73
2021/01/24 11:23:03;;;;;;;22.17;17.02;;;;;;;;;;5091360;28;20678;-75
2021/01/24 11:25:29;;;;;;;22.58;17.35;;;;;;;;;;5079064;28;20208;-77
2021/01/24 11:27:56;;;;;;;19.33;16.08;;;;;;;;;;5069744;28;20183;-72
2021/01/24 11:30:22;;;;;;;18.88;15.27;;;;;;;;;;5089700;28;20202;-72
2021/01/24 11:32:48;;;;;;;20.70;16.38;;;;;;;;;;5081264;28;20204;-74
2021/01/24 11:35:15;;;;;;;22.80;17.63;;;;;;;;;;5073270;28;20215;-75
2021/01/24 11:37:42;;;;;;;23.13;17.33;;;;;;;;;;5070872;28;20183;-78
2021/01/24 11:40:08;;;;;;;21.40;16.02;;;;;;;;;;5072843;28;20180;-72
2021/01/24 11:42:35;;;;;;;21.98;16.75;;;;;;;;;;5069633;28;20627;-72
2021/01/24 11:45:02;;;;;;;22.02;17.10;;;;;;;;;;5075850;28;20352;-72
2021/01/24 11:47:28;;;;;;;23.67;16.98;;;;;;;;;;5089731;28;20653;-75
2021/01/24 11:49:54;;;;;;;22.98;15.50;;;;;;;;;;5086903;28;20183;-72
2021/01/24 11:52:20;;;;;;;21.30;16.55;;;;;;;;;;5078333;28;20204;-73
2021/01/24 11:54:46;;;;;;;24.30;17.77;;;;;;;;;;5084038;28;20222;-74
2021/01/24 11:57:12;;;;;;;19.65;15.95;;;;;;;;;;5069514;28;20185;-73
2021/01/24 11:59:38;;;;;;;24.27;17.23;;;;;;;;;;5074550;28;20541;-75
2021/01/24 12:02:04;;;;;;;25.30;18.65;;;;;;;;;;5089510;28;20590;-76
2021/01/24 12:04:30;;;;;;;20.58;17.27;;;;;;;;;;5084492;28;20533;-73
2021/01/24 12:06:56;;;;;;;24.80;17.50;;;;;;;;;;5078675;28;20569;-72
2021/01/24 12:09:23;;;;;;;22.40;17.83;;;;;;;;;;5087444;28;20573;-72
2021/01/24 12:11:49;;;;;;;25.58;19.67;;;;;;;;;;5081788;28;20558;-72
2021/01/24 12:14:15;;;;;;;23.98;19.15;;;;;;;;;;5084110;28;20542;-74
2021/01/24 12:16:41;;;;;;;24.15;18.95;;;;;;;;;;5096857;28;20228;-77
2021/01/24 12:19:07;;;;;;;26.70;21.33;;;;;;;;;;5097542;28;20197;-73
2021/01/24 12:21:33;;;;;;;28.30;21.23;;;;;;;;;;5096900;28;20171;-72
2021/01/24 12:23:59;;;;;;;25.42;18.88;;;;;;;;;;5096297;28;20187;-72
2021/01/24 12:26:26;;;;;;;25.50;19.67;;;;;;;;;;5096983;28;20211;-76
2021/01/24 12:28:52;;;;;;;23.88;18.73;;;;;;;;;;5090048;28;20697;-74
2021/01/24 12:31:18;;;;;;;24.60;19.23;;;;;;;;;;5076620;28;20184;-72
2021/01/24 12:33:44;;;;;;;24.92;18.95;;;;;;;;;;5081520;28;20203;-76
2021/01/24 12:36:10;;;;;;;25.45;17.73;;;;;;;;;;5096727;28;20233;-72
2021/01/24 12:38:36;;;;;;;23.20;19.30;;;;;;;;;;5096694;28;20176;-73
2021/01/24 12:41:02;;;;;;;23.73;18.10;;;;;;;;;;5096959;28;20544;-73
2021/01/24 12:43:28;;;;;;;22.92;18.83;;;;;;;;;;5096273;28;20191;-73
2021/01/24 12:45:54;;;;;;;22.33;18.02;;;;;;;;;;5096391;28;20175;-73
2021/01/24 12:48:21;;;;;;;25.45;19.17;;;;;;;;;;5096230;28;20172;-74
2021/01/24 12:50:47;;;;;;;23.65;18.23;;;;;;;;;;5097019;28;20540;-75
2021/01/24 12:53:13;;;;;;;24.75;19.95;;;;;;;;;;5096133;28;20656;-74
2021/01/24 12:55:39;;;;;;;21.58;17.52;;;;;;;;;;5096091;28;20225;-73
2021/01/24 12:58:05;;;;;;;22.10;18.65;;;;;;;;;;5096427;28;20532;-72
2021/01/24 13:00:31;;;;;;;25.55;20.33;;;;;;;;;;5096403;28;20180;-74
2021/01/24 13:02:57;;;;;;;25.60;20.55;;;;;;;;;;5096140;28;20325;-74
2021/01/24 13:05:24;;;;;;;23.67;18.90;;;;;;;;;;5095883;28;20199;-75
2021/01/24 13:07:50;;;;;;;26.77;19.17;;;;;;;;;;5096097;28;20194;-75
2021/01/24 13:10:16;;;;;;;23.33;19.67;;;;;;;;;;5091147;28;20172;-75
2021/01/24 13:12:42;;;;;;;25.45;20.13;;;;;;;;;;5075769;28;20624;-72
2021/01/24 13:15:08;;;;;;;25.02;18.88;;;;;;;;;;5075526;28;20199;-73
2021/01/24 13:17:34;;;;;;;25.42;20.20;;;;;;;;;;5075320;28;20183;-75
2021/01/24 13:20:00;;;;;;;43.05;29.63;;;;;;;;;;5075736;28;20275;-74
2021/01/24 13:22:27;;;;;;;30.42;23.60;;;;;;;;;;5075555;28;20253;-73
2021/01/24 13:24:53;;;;;;;26.58;19.98;;;;;;;;;;5075704;28;20600;-73
2021/01/24 13:27:19;;;;;;;24.25;18.30;;;;;;;;;;5075917;28;20199;-73
2021/01/24 13:29:45;;;;;;;29.00;21.98;;;;;;;;;;5091439;28;20182;-74
2021/01/24 13:32:11;;;;;;;24.52;18.05;;;;;;;;;;5091665;28;20680;-75
2021/01/24 13:34:37;;;;;;;28.38;19.63;;;;;;;;;;5086261;28;20195;-77
2021/01/24 13:37:03;;;;;;;29.17;19.50;;;;;;;;;;5091690;28;20168;-74
2021/01/24 13:39:29;;;;;;;28.15;21.13;;;;;;;;;;5076813;28;20172;-73
2021/01/24 13:41:55;;;;;;;24.27;18.98;;;;;;;;;;5075642;28;20242;-75
2021/01/24 13:44:21;;;;;;;27.17;20.75;;;;;;;;;;5080854;28;20179;-74
2021/01/24 13:46:47;;;;;;;23.75;18.40;;;;;;;;;;5095342;28;20167;-73
2021/01/24 13:49:13;;;;;;;23.42;17.98;;;;;;;;;;5095523;28;20171;-73
2021/01/24 13:51:39;;;;;;;23.95;18.92;;;;;;;;;;5095360;28;20225;-75
2021/01/24 13:54:05;;;;;;;24.52;18.90;;;;;;;;;;5095077;28;20526;-73
2021/01/24 13:56:32;;;;;;;22.23;18.75;;;;;;;;;;5095438;28;20182;-76
2021/01/24 13:58:58;;;;;;;22.40;18.52;;;;;;;;;;5095390;28;20186;-73
2021/01/24 14:01:24;;;;;;;20.30;17.30;;;;;;;;;;5095154;28;20616;-73
2021/01/24 14:03:50;;;;;;;20.92;16.95;;;;;;;;;;5094916;28;20175;-74
2021/01/24 14:06:16;;;;;;;22.33;17.77;;;;;;;;;;5095574;28;20194;-73
2021/01/24 14:08:42;;;;;;;24.73;18.50;;;;;;;;;;5100027;28;20186;-76
2021/01/24 14:11:08;;;;;;;23.80;17.60;;;;;;;;;;5077608;28;20184;-75
2021/01/24 14:13:34;;;;;;;20.90;17.05;;;;;;;;;;5074106;28;20554;-70